sensor_id;sensor_type;location;lat;lon;timestamp;pressure;altitude;pressure_sealevel;temperature
76541;BMP280;65385;55.772;37.658;2023-05-29T00:00:26;100030.06;;;11.15
76541;BMP280;65385;55.772;37.658;2023-05-29T00:01:27;100034.75;;;11.13
76541;BMP280;65385;55.772;37.658;2023-05-29T00:02:28;100027.94;;;11.12
76541;BMP280;65385;55.772;37.658;2023-05-29T00:03:29;100041.28;;;11.10
76541;BMP280;65385;55.772;37.658;2023-05-29T00:04:33;100030.00;;;11.10
76541;BMP280;65385;55.772;37.658;2023-05-29T00:05:34;100031.84;;;11.09
76541;BMP280;65385;55.772;37.658;2023-05-29T00:06:34;100035.25;;;11.10
76541;BMP280;65385;55.772;37.658;2023-05-29T00:07:36;100033.13;;;11.07
76541;BMP280;65385;55.772;37.658;2023-05-29T00:08:37;100033.13;;;11.07
76541;BMP280;65385;55.772;37.658;2023-05-29T00:09:37;100036.78;;;11.06
76541;BMP280;65385;55.772;37.658;2023-05-29T00:10:38;100037.31;;;11.03
76541;BMP280;65385;55.772;37.658;2023-05-29T00:11:38;100043.56;;;11.02
76541;BMP280;65385;55.772;37.658;2023-05-29T00:12:39;100045.16;;;11.03
76541;BMP280;65385;55.772;37.658;2023-05-29T00:13:40;100044.38;;;11.02
76541;BMP280;65385;55.772;37.658;2023-05-29T00:14:41;100040.94;;;11.02
76541;BMP280;65385;55.772;37.658;2023-05-29T00:15:41;100039.91;;;11.03
76541;BMP280;65385;55.772;37.658;2023-05-29T00:16:42;100041.75;;;11.02
76541;BMP280;65385;55.772;37.658;2023-05-29T00:17:44;100043.56;;;11.02
76541;BMP280;65385;55.772;37.658;2023-05-29T00:18:44;100042.00;;;11.01
76541;BMP280;65385;55.772;37.658;2023-05-29T00:19:46;100037.81;;;11.00
76541;BMP280;65385;55.772;37.658;2023-05-29T00:20:47;100042.00;;;11.01
76541;BMP280;65385;55.772;37.658;2023-05-29T00:21:47;100043.03;;;11.00
76541;BMP280;65385;55.772;37.658;2023-05-29T00:22:48;100038.84;;;10.99
76541;BMP280;65385;55.772;37.658;2023-05-29T00:23:49;100041.22;;;11.00
76541;BMP280;65385;55.772;37.658;2023-05-29T00:24:51;100045.66;;;11.00
76541;BMP280;65385;55.772;37.658;2023-05-29T00:25:51;100045.44;;;11.01
76541;BMP280;65385;55.772;37.658;2023-05-29T00:26:52;100040.44;;;11.00
76541;BMP280;65385;55.772;37.658;2023-05-29T00:27:52;100038.59;;;11.00
76541;BMP280;65385;55.772;37.658;2023-05-29T00:28:53;100032.81;;;10.98
76541;BMP280;65385;55.772;37.658;2023-05-29T00:29:53;100035.94;;;10.95
76541;BMP280;65385;55.772;37.658;2023-05-29T00:30:54;100044.59;;;10.96
76541;BMP280;65385;55.772;37.658;2023-05-29T00:31:55;100039.63;;;10.94
76541;BMP280;65385;55.772;37.658;2023-05-29T00:32:56;100045.63;;;10.95
76541;BMP280;65385;55.772;37.658;2023-05-29T00:33:57;100036.22;;;10.94
76541;BMP280;65385;55.772;37.658;2023-05-29T00:34:57;100046.69;;;10.94
76541;BMP280;65385;55.772;37.658;2023-05-29T00:35:58;100045.88;;;10.93
76541;BMP280;65385;55.772;37.658;2023-05-29T00:36:59;100049.03;;;10.95
76541;BMP280;65385;55.772;37.658;2023-05-29T00:37:59;100050.84;;;10.95
76541;BMP280;65385;55.772;37.658;2023-05-29T00:39:00;100047.47;;;10.94
76541;BMP280;65385;55.772;37.658;2023-05-29T00:40:01;100046.69;;;10.94
76541;BMP280;65385;55.772;37.658;2023-05-29T00:41:04;100041.13;;;10.90
76541;BMP280;65385;55.772;37.658;2023-05-29T00:42:05;100038.28;;;10.92
76541;BMP280;65385;55.772;37.658;2023-05-29T00:43:06;100040.34;;;10.90
76541;BMP280;65385;55.772;37.658;2023-05-29T00:44:07;100036.69;;;10.91
76541;BMP280;65385;55.772;37.658;2023-05-29T00:45:08;100045.56;;;10.90
76541;BMP280;65385;55.772;37.658;2023-05-29T00:46:10;100040.34;;;10.90
76541;BMP280;65385;55.772;37.658;2023-05-29T00:47:13;100044.03;;;10.89
76541;BMP280;65385;55.772;37.658;2023-05-29T00:48:14;100042.44;;;10.88
76541;BMP280;65385;55.772;37.658;2023-05-29T00:49:16;100042.69;;;10.86
76541;BMP280;65385;55.772;37.658;2023-05-29T00:50:21;100044.53;;;10.86
76541;BMP280;65385;55.772;37.658;2023-05-29T00:51:22;100050.25;;;10.82
76541;BMP280;65385;55.772;37.658;2023-05-29T00:52:24;100048.19;;;10.84
76541;BMP280;65385;55.772;37.658;2023-05-29T00:53:26;100046.59;;;10.83
76541;BMP280;65385;55.772;37.658;2023-05-29T00:54:28;100044.22;;;10.82
76541;BMP280;65385;55.772;37.658;2023-05-29T00:55:30;100046.31;;;10.80
76541;BMP280;65385;55.772;37.658;2023-05-29T00:56:31;100046.31;;;10.80
76541;BMP280;65385;55.772;37.658;2023-05-29T00:57:34;100052.31;;;10.80
76541;BMP280;65385;55.772;37.658;2023-05-29T00:58:35;100046.03;;;10.81
76541;BMP280;65385;55.772;37.658;2023-05-29T00:59:36;100049.72;;;10.80
76541;BMP280;65385;55.772;37.658;2023-05-29T01:00:37;100054.69;;;10.82
76541;BMP280;65385;55.772;37.658;2023-05-29T01:01:39;100046.59;;;10.83
76541;BMP280;65385;55.772;37.658;2023-05-29T01:02:41;100055.00;;;10.86
76541;BMP280;65385;55.772;37.658;2023-05-29T01:03:46;100048.97;;;10.85
76541;BMP280;65385;55.772;37.658;2023-05-29T01:04:48;100052.13;;;10.87
76541;BMP280;65385;55.772;37.658;2023-05-29T01:05:50;100051.06;;;10.88
76541;BMP280;65385;55.772;37.658;2023-05-29T01:06:52;100049.31;;;10.94
76541;BMP280;65385;55.772;37.658;2023-05-29T01:07:53;100051.69;;;11.00
76541;BMP280;65385;55.772;37.658;2023-05-29T01:08:53;100053.56;;;11.10
76541;BMP280;65385;55.772;37.658;2023-05-29T01:09:54;100059.94;;;11.19
76541;BMP280;65385;55.772;37.658;2023-05-29T01:11:01;100060.50;;;11.31
76541;BMP280;65385;55.772;37.658;2023-05-29T01:12:49;100061.91;;;11.49
76541;BMP280;65385;55.772;37.658;2023-05-29T01:13:55;100065.66;;;11.63
76541;BMP280;65385;55.772;37.658;2023-05-29T01:20:19;100057.69;;;12.40
76541;BMP280;65385;55.772;37.658;2023-05-29T01:23:03;100054.78;;;12.72
76541;BMP280;65385;55.772;37.658;2023-05-29T01:24:32;100053.22;;;12.96
76541;BMP280;65385;55.772;37.658;2023-05-29T01:28:27;100053.56;;;13.44
76541;BMP280;65385;55.772;37.658;2023-05-29T01:29:34;100061.94;;;13.56
76541;BMP280;65385;55.772;37.658;2023-05-29T01:30:36;100054.50;;;13.68
76541;BMP280;65385;55.772;37.658;2023-05-29T01:31:37;100052.63;;;13.78
76541;BMP280;65385;55.772;37.658;2023-05-29T01:32:39;100063.66;;;13.86
76541;BMP280;65385;55.772;37.658;2023-05-29T01:33:40;100059.63;;;13.98
76541;BMP280;65385;55.772;37.658;2023-05-29T01:34:41;100059.53;;;14.08
76541;BMP280;65385;55.772;37.658;2023-05-29T01:35:41;100052.09;;;14.20
76541;BMP280;65385;55.772;37.658;2023-05-29T01:36:42;100060.16;;;14.34
76541;BMP280;65385;55.772;37.658;2023-05-29T01:37:42;100065.84;;;14.46
76541;BMP280;65385;55.772;37.658;2023-05-29T01:38:43;100058.38;;;14.58
76541;BMP280;65385;55.772;37.658;2023-05-29T01:39:45;100060.06;;;14.73
76541;BMP280;65385;55.772;37.658;2023-05-29T01:40:46;100054.16;;;14.86
76541;BMP280;65385;55.772;37.658;2023-05-29T01:41:47;100061.31;;;15.04
76541;BMP280;65385;55.772;37.658;2023-05-29T01:42:49;100066.13;;;15.21
76541;BMP280;65385;55.772;37.658;2023-05-29T01:43:50;100062.78;;;15.34
76541;BMP280;65385;55.772;37.658;2023-05-29T01:44:53;100066.81;;;15.50
76541;BMP280;65385;55.772;37.658;2023-05-29T01:45:54;100070.31;;;15.64
76541;BMP280;65385;55.772;37.658;2023-05-29T01:46:55;100073.28;;;15.81
76541;BMP280;65385;55.772;37.658;2023-05-29T01:47:56;100067.78;;;15.96
76541;BMP280;65385;55.772;37.658;2023-05-29T01:48:57;100060.97;;;16.09
76541;BMP280;65385;55.772;37.658;2023-05-29T01:49:58;100061.78;;;16.23
76541;BMP280;65385;55.772;37.658;2023-05-29T01:51:03;100066.88;;;16.33
76541;BMP280;65385;55.772;37.658;2023-05-29T01:52:04;100069.09;;;16.45
76541;BMP280;65385;55.772;37.658;2023-05-29T01:53:05;100070.00;;;16.54
76541;BMP280;65385;55.772;37.658;2023-05-29T01:54:05;100060.28;;;16.63
76541;BMP280;65385;55.772;37.658;2023-05-29T01:55:07;100059.84;;;16.75
76541;BMP280;65385;55.772;37.658;2023-05-29T01:56:08;100063.94;;;16.94
76541;BMP280;65385;55.772;37.658;2023-05-29T01:57:11;100063.34;;;17.11
76541;BMP280;65385;55.772;37.658;2023-05-29T01:58:13;100063.84;;;17.27
76541;BMP280;65385;55.772;37.658;2023-05-29T01:59:15;100059.88;;;17.38
76541;BMP280;65385;55.772;37.658;2023-05-29T02:00:17;100065.94;;;17.52
76541;BMP280;65385;55.772;37.658;2023-05-29T02:01:19;100067.84;;;17.60
76541;BMP280;65385;55.772;37.658;2023-05-29T02:02:22;100062.78;;;17.72
76541;BMP280;65385;55.772;37.658;2023-05-29T02:03:23;100060.00;;;17.91
76541;BMP280;65385;55.772;37.658;2023-05-29T02:04:24;100057.28;;;18.04
76541;BMP280;65385;55.772;37.658;2023-05-29T02:05:25;100058.91;;;18.14
76541;BMP280;65385;55.772;37.658;2023-05-29T02:06:25;100059.53;;;18.19
76541;BMP280;65385;55.772;37.658;2023-05-29T02:07:26;100057.13;;;18.32
76541;BMP280;65385;55.772;37.658;2023-05-29T02:08:27;100060.94;;;18.48
76541;BMP280;65385;55.772;37.658;2023-05-29T02:09:28;100061.75;;;18.57
76541;BMP280;65385;55.772;37.658;2023-05-29T02:10:29;100066.34;;;18.65
76541;BMP280;65385;55.772;37.658;2023-05-29T02:11:30;100066.34;;;18.73
76541;BMP280;65385;55.772;37.658;2023-05-29T02:12:31;100067.34;;;18.86
76541;BMP280;65385;55.772;37.658;2023-05-29T02:13:33;100064.53;;;19.00
76541;BMP280;65385;55.772;37.658;2023-05-29T02:14:34;100060.97;;;19.13
76541;BMP280;65385;55.772;37.658;2023-05-29T02:15:35;100059.91;;;19.22
76541;BMP280;65385;55.772;37.658;2023-05-29T02:16:36;100059.28;;;19.34
76541;BMP280;65385;55.772;37.658;2023-05-29T02:17:37;100070.22;;;19.50
76541;BMP280;65385;55.772;37.658;2023-05-29T02:18:37;100063.06;;;19.59
76541;BMP280;65385;55.772;37.658;2023-05-29T02:19:40;100069.75;;;19.56
76541;BMP280;65385;55.772;37.658;2023-05-29T02:20:41;100069.28;;;19.71
76541;BMP280;65385;55.772;37.658;2023-05-29T02:21:42;100065.53;;;19.89
76541;BMP280;65385;55.772;37.658;2023-05-29T02:22:42;100056.91;;;19.92
76541;BMP280;65385;55.772;37.658;2023-05-29T02:23:44;100069.97;;;20.15
76541;BMP280;65385;55.772;37.658;2023-05-29T02:24:44;100067.59;;;20.22
76541;BMP280;65385;55.772;37.658;2023-05-29T02:25:45;100066.22;;;20.16
76541;BMP280;65385;55.772;37.658;2023-05-29T02:26:47;100068.25;;;20.19
76541;BMP280;65385;55.772;37.658;2023-05-29T02:27:48;100067.69;;;20.34
76541;BMP280;65385;55.772;37.658;2023-05-29T02:28:49;100070.06;;;20.35
76541;BMP280;65385;55.772;37.658;2023-05-29T02:29:50;100067.34;;;20.52
76541;BMP280;65385;55.772;37.658;2023-05-29T02:30:50;100066.22;;;20.53
76541;BMP280;65385;55.772;37.658;2023-05-29T02:31:51;100066.78;;;20.68
76541;BMP280;65385;55.772;37.658;2023-05-29T02:32:52;100071.63;;;20.95
76541;BMP280;65385;55.772;37.658;2023-05-29T02:33:52;100068.53;;;21.13
76541;BMP280;65385;55.772;37.658;2023-05-29T02:34:53;100064.44;;;21.16
76541;BMP280;65385;55.772;37.658;2023-05-29T02:35:54;100054.88;;;21.15
76541;BMP280;65385;55.772;37.658;2023-05-29T02:36:54;100061.66;;;21.33
76541;BMP280;65385;55.772;37.658;2023-05-29T02:37:55;100062.06;;;21.56
76541;BMP280;65385;55.772;37.658;2023-05-29T02:38:56;100060.22;;;21.68
76541;BMP280;65385;55.772;37.658;2023-05-29T02:39:56;100059.53;;;21.71
76541;BMP280;65385;55.772;37.658;2023-05-29T02:40:57;100069.44;;;21.71
76541;BMP280;65385;55.772;37.658;2023-05-29T02:42:00;100061.50;;;21.95
76541;BMP280;65385;55.772;37.658;2023-05-29T02:43:00;100066.50;;;21.97
76541;BMP280;65385;55.772;37.658;2023-05-29T02:44:01;100065.41;;;21.98
76541;BMP280;65385;55.772;37.658;2023-05-29T02:45:02;100068.84;;;22.10
76541;BMP280;65385;55.772;37.658;2023-05-29T02:46:05;100070.06;;;22.25
76541;BMP280;65385;55.772;37.658;2023-05-29T02:47:05;100067.00;;;22.47
76541;BMP280;65385;55.772;37.658;2023-05-29T02:48:06;100068.09;;;22.70
76541;BMP280;65385;55.772;37.658;2023-05-29T02:49:07;100074.50;;;22.81
76541;BMP280;65385;55.772;37.658;2023-05-29T02:50:09;100075.94;;;22.91
76541;BMP280;65385;55.772;37.658;2023-05-29T02:51:09;100068.88;;;23.10
76541;BMP280;65385;55.772;37.658;2023-05-29T02:52:10;100074.78;;;23.04
76541;BMP280;65385;55.772;37.658;2023-05-29T02:53:11;100071.50;;;22.83
76541;BMP280;65385;55.772;37.658;2023-05-29T02:54:12;100068.72;;;22.79
76541;BMP280;65385;55.772;37.658;2023-05-29T02:55:12;100066.06;;;22.79
76541;BMP280;65385;55.772;37.658;2023-05-29T02:56:13;100072.59;;;22.82
76541;BMP280;65385;55.772;37.658;2023-05-29T02:57:16;100067.59;;;22.92
76541;BMP280;65385;55.772;37.658;2023-05-29T02:58:16;100066.13;;;23.07
76541;BMP280;65385;55.772;37.658;2023-05-29T02:59:17;100072.28;;;23.23
76541;BMP280;65385;55.772;37.658;2023-05-29T03:00:18;100078.59;;;23.31
76541;BMP280;65385;55.772;37.658;2023-05-29T03:01:18;100077.69;;;23.27
76541;BMP280;65385;55.772;37.658;2023-05-29T03:02:19;100069.84;;;23.46
76541;BMP280;65385;55.772;37.658;2023-05-29T03:03:20;100066.59;;;23.52
76541;BMP280;65385;55.772;37.658;2023-05-29T03:04:21;100072.81;;;23.72
76541;BMP280;65385;55.772;37.658;2023-05-29T03:05:22;100079.03;;;23.76
76541;BMP280;65385;55.772;37.658;2023-05-29T03:06:22;100073.44;;;23.81
76541;BMP280;65385;55.772;37.658;2023-05-29T03:07:23;100081.09;;;23.82
76541;BMP280;65385;55.772;37.658;2023-05-29T03:08:24;100080.69;;;23.80
76541;BMP280;65385;55.772;37.658;2023-05-29T03:09:25;100075.75;;;23.82
76541;BMP280;65385;55.772;37.658;2023-05-29T03:10:26;100086.63;;;24.05
76541;BMP280;65385;55.772;37.658;2023-05-29T03:11:28;100082.31;;;24.16
76541;BMP280;65385;55.772;37.658;2023-05-29T03:12:29;100081.38;;;24.24
76541;BMP280;65385;55.772;37.658;2023-05-29T03:13:30;100085.53;;;24.57
76541;BMP280;65385;55.772;37.658;2023-05-29T03:14:38;100091.28;;;24.74
76541;BMP280;65385;55.772;37.658;2023-05-29T03:15:45;100084.38;;;24.73
76541;BMP280;65385;55.772;37.658;2023-05-29T03:16:48;100082.47;;;24.93
76541;BMP280;65385;55.772;37.658;2023-05-29T03:17:50;100095.25;;;24.99
76541;BMP280;65385;55.772;37.658;2023-05-29T03:18:55;100095.25;;;24.99
76541;BMP280;65385;55.772;37.658;2023-05-29T03:19:56;100088.97;;;24.92
76541;BMP280;65385;55.772;37.658;2023-05-29T03:20:58;100088.41;;;25.02
76541;BMP280;65385;55.772;37.658;2023-05-29T03:21:59;100089.38;;;24.94
76541;BMP280;65385;55.772;37.658;2023-05-29T03:23:00;100091.34;;;24.78
76541;BMP280;65385;55.772;37.658;2023-05-29T03:24:02;100097.13;;;24.61
76541;BMP280;65385;55.772;37.658;2023-05-29T03:25:04;100104.91;;;24.50
76541;BMP280;65385;55.772;37.658;2023-05-29T03:26:05;100100.75;;;24.52
76541;BMP280;65385;55.772;37.658;2023-05-29T03:27:08;100100.41;;;24.38
76541;BMP280;65385;55.772;37.658;2023-05-29T03:28:10;100112.59;;;24.36
76541;BMP280;65385;55.772;37.658;2023-05-29T03:29:10;100106.63;;;24.42
76541;BMP280;65385;55.772;37.658;2023-05-29T03:30:11;100102.31;;;24.53
76541;BMP280;65385;55.772;37.658;2023-05-29T03:31:12;100114.75;;;24.62
76541;BMP280;65385;55.772;37.658;2023-05-29T03:32:13;100106.16;;;24.72
76541;BMP280;65385;55.772;37.658;2023-05-29T03:33:13;100109.97;;;24.90
76541;BMP280;65385;55.772;37.658;2023-05-29T03:34:31;100108.44;;;24.89
76541;BMP280;65385;55.772;37.658;2023-05-29T03:35:33;100109.81;;;24.83
76541;BMP280;65385;55.772;37.658;2023-05-29T03:36:34;100114.09;;;25.03
76541;BMP280;65385;55.772;37.658;2023-05-29T03:37:37;100100.25;;;25.20
76541;BMP280;65385;55.772;37.658;2023-05-29T03:38:38;100114.72;;;25.35
76541;BMP280;65385;55.772;37.658;2023-05-29T03:39:39;100106.16;;;25.29
76541;BMP280;65385;55.772;37.658;2023-05-29T03:40:41;100104.59;;;25.28
76541;BMP280;65385;55.772;37.658;2023-05-29T03:41:42;100104.19;;;25.07
76541;BMP280;65385;55.772;37.658;2023-05-29T03:42:44;100102.66;;;25.06
76541;BMP280;65385;55.772;37.658;2023-05-29T03:43:45;100101.94;;;25.09
76541;BMP280;65385;55.772;37.658;2023-05-29T03:44:45;100109.16;;;25.05
76541;BMP280;65385;55.772;37.658;2023-05-29T03:45:46;100108.59;;;24.96
76541;BMP280;65385;55.772;37.658;2023-05-29T03:46:48;100110.03;;;24.93
76541;BMP280;65385;55.772;37.658;2023-05-29T03:47:49;100111.94;;;24.93
76541;BMP280;65385;55.772;37.658;2023-05-29T03:48:50;100114.19;;;25.10
76541;BMP280;65385;55.772;37.658;2023-05-29T03:49:51;100116.41;;;25.04
76541;BMP280;65385;55.772;37.658;2023-05-29T03:50:52;100119.06;;;25.23
76541;BMP280;65385;55.772;37.658;2023-05-29T03:51:59;100121.22;;;25.37
76541;BMP280;65385;55.772;37.658;2023-05-29T03:53:00;100118.50;;;25.34
76541;BMP280;65385;55.772;37.658;2023-05-29T03:54:00;100127.81;;;25.40
76541;BMP280;65385;55.772;37.658;2023-05-29T03:55:02;100121.81;;;25.46
76541;BMP280;65385;55.772;37.658;2023-05-29T03:56:05;100115.88;;;25.56
76541;BMP280;65385;55.772;37.658;2023-05-29T03:57:07;100119.41;;;25.60
76541;BMP280;65385;55.772;37.658;2023-05-29T03:58:09;100112.81;;;25.80
76541;BMP280;65385;55.772;37.658;2023-05-29T03:59:13;100122.25;;;25.71
76541;BMP280;65385;55.772;37.658;2023-05-29T04:00:14;100117.91;;;25.85
76541;BMP280;65385;55.772;37.658;2023-05-29T04:01:15;100120.28;;;25.90
76541;BMP280;65385;55.772;37.658;2023-05-29T04:02:15;100111.47;;;26.13
76541;BMP280;65385;55.772;37.658;2023-05-29T04:03:16;100122.75;;;26.25
76541;BMP280;65385;55.772;37.658;2023-05-29T04:04:20;100120.78;;;26.22
76541;BMP280;65385;55.772;37.658;2023-05-29T04:05:21;100123.72;;;26.14
76541;BMP280;65385;55.772;37.658;2023-05-29T04:06:21;100125.59;;;26.10
76541;BMP280;65385;55.772;37.658;2023-05-29T04:07:22;100117.31;;;25.95
76541;BMP280;65385;55.772;37.658;2023-05-29T04:08:23;100131.56;;;25.77
76541;BMP280;65385;55.772;37.658;2023-05-29T04:09:24;100123.47;;;25.54
76541;BMP280;65385;55.772;37.658;2023-05-29T04:10:25;100131.84;;;25.30
76541;BMP280;65385;55.772;37.658;2023-05-29T04:11:25;100130.78;;;25.35
76541;BMP280;65385;55.772;37.658;2023-05-29T04:12:29;100126.69;;;25.21
76541;BMP280;65385;55.772;37.658;2023-05-29T04:13:30;100128.03;;;25.31
76541;BMP280;65385;55.772;37.658;2023-05-29T04:14:30;100132.53;;;25.46
76541;BMP280;65385;55.772;37.658;2023-05-29T04:15:31;100131.25;;;25.59
76541;BMP280;65385;55.772;37.658;2023-05-29T04:16:33;100119.03;;;25.84
76541;BMP280;65385;55.772;37.658;2023-05-29T04:17:34;100122.78;;;26.03
76541;BMP280;65385;55.772;37.658;2023-05-29T04:18:35;100122.53;;;26.11
76541;BMP280;65385;55.772;37.658;2023-05-29T04:19:36;100126.00;;;26.12
76541;BMP280;65385;55.772;37.658;2023-05-29T04:20:36;100126.31;;;26.33
76541;BMP280;65385;55.772;37.658;2023-05-29T04:21:37;100135.03;;;26.26
76541;BMP280;65385;55.772;37.658;2023-05-29T04:22:38;100128.69;;;26.38
76541;BMP280;65385;55.772;37.658;2023-05-29T04:23:39;100127.88;;;26.34
76541;BMP280;65385;55.772;37.658;2023-05-29T04:24:40;100128.25;;;26.62
76541;BMP280;65385;55.772;37.658;2023-05-29T04:25:41;100128.97;;;26.85
76541;BMP280;65385;55.772;37.658;2023-05-29T04:26:45;100126.00;;;26.64
76541;BMP280;65385;55.772;37.658;2023-05-29T04:27:45;100128.38;;;26.69
76541;BMP280;65385;55.772;37.658;2023-05-29T04:28:52;100135.91;;;26.60
76541;BMP280;65385;55.772;37.658;2023-05-29T04:29:58;100133.88;;;26.50
76541;BMP280;65385;55.772;37.658;2023-05-29T04:30:59;100128.28;;;26.36
76541;BMP280;65385;55.772;37.658;2023-05-29T04:32:00;100120.94;;;26.33
76541;BMP280;65385;55.772;37.658;2023-05-29T04:33:05;100131.34;;;26.34
76541;BMP280;65385;55.772;37.658;2023-05-29T04:34:07;100128.03;;;26.44
76541;BMP280;65385;55.772;37.658;2023-05-29T04:35:08;100136.25;;;26.55
76541;BMP280;65385;55.772;37.658;2023-05-29T04:36:14;100131.88;;;26.73
76541;BMP280;65385;55.772;37.658;2023-05-29T04:37:19;100134.09;;;26.67
76541;BMP280;65385;55.772;37.658;2023-05-29T04:38:21;100132.69;;;26.47
76541;BMP280;65385;55.772;37.658;2023-05-29T04:39:26;100131.06;;;26.43
76541;BMP280;65385;55.772;37.658;2023-05-29T04:40:28;100131.63;;;26.29
76541;BMP280;65385;55.772;37.658;2023-05-29T04:41:28;100136.31;;;26.10
76541;BMP280;65385;55.772;37.658;2023-05-29T04:42:33;100140.75;;;25.99
76541;BMP280;65385;55.772;37.658;2023-05-29T04:43:34;100140.53;;;25.88
76541;BMP280;65385;55.772;37.658;2023-05-29T04:44:39;100141.53;;;25.76
76541;BMP280;65385;55.772;37.658;2023-05-29T04:45:39;100145.19;;;25.68
76541;BMP280;65385;55.772;37.658;2023-05-29T04:46:42;100146.31;;;25.67
76541;BMP280;65385;55.772;37.658;2023-05-29T04:47:44;100142.81;;;25.63
76541;BMP280;65385;55.772;37.658;2023-05-29T04:48:46;100143.94;;;25.62
76541;BMP280;65385;55.772;37.658;2023-05-29T04:49:48;100147.59;;;25.54
76541;BMP280;65385;55.772;37.658;2023-05-29T04:50:50;100147.31;;;25.59
76541;BMP280;65385;55.772;37.658;2023-05-29T04:51:51;100149.66;;;25.61
76541;BMP280;65385;55.772;37.658;2023-05-29T04:52:53;100147.09;;;25.68
76541;BMP280;65385;55.772;37.658;2023-05-29T04:53:53;100147.69;;;25.80
76541;BMP280;65385;55.772;37.658;2023-05-29T04:54:54;100143.66;;;26.13
76541;BMP280;65385;55.772;37.658;2023-05-29T04:55:55;100142.97;;;26.42
76541;BMP280;65385;55.772;37.658;2023-05-29T04:56:56;100139.69;;;26.55
76541;BMP280;65385;55.772;37.658;2023-05-29T04:58:01;100140.00;;;26.77
76541;BMP280;65385;55.772;37.658;2023-05-29T04:59:01;100146.34;;;26.65
76541;BMP280;65385;55.772;37.658;2023-05-29T05:00:03;100141.97;;;26.53
76541;BMP280;65385;55.772;37.658;2023-05-29T05:01:10;100143.72;;;26.98
76541;BMP280;65385;55.772;37.658;2023-05-29T05:02:15;100135.69;;;27.02
76541;BMP280;65385;55.772;37.658;2023-05-29T05:03:16;100145.50;;;27.20
76541;BMP280;65385;55.772;37.658;2023-05-29T05:04:17;100146.97;;;27.14
76541;BMP280;65385;55.772;37.658;2023-05-29T05:05:18;100147.28;;;27.06
76541;BMP280;65385;55.772;37.658;2023-05-29T05:06:18;100151.69;;;27.24
76541;BMP280;65385;55.772;37.658;2023-05-29T05:07:19;100143.22;;;27.63
76541;BMP280;65385;55.772;37.658;2023-05-29T05:08:21;100148.50;;;27.92
76541;BMP280;65385;55.772;37.658;2023-05-29T05:09:22;100149.69;;;27.95
76541;BMP280;65385;55.772;37.658;2023-05-29T05:10:22;100148.19;;;28.01
76541;BMP280;65385;55.772;37.658;2023-05-29T05:11:23;100146.22;;;27.98
76541;BMP280;65385;55.772;37.658;2023-05-29T05:12:24;100152.09;;;28.07
76541;BMP280;65385;55.772;37.658;2023-05-29T05:13:25;100152.38;;;27.95
76541;BMP280;65385;55.772;37.658;2023-05-29T05:14:27;100151.94;;;27.89
76541;BMP280;65385;55.772;37.658;2023-05-29T05:15:28;100152.13;;;27.67
76541;BMP280;65385;55.772;37.658;2023-05-29T05:16:29;100148.63;;;27.63
76541;BMP280;65385;55.772;37.658;2023-05-29T05:17:30;100153.16;;;27.52
76541;BMP280;65385;55.772;37.658;2023-05-29T05:18:30;100149.75;;;27.58
76541;BMP280;65385;55.772;37.658;2023-05-29T05:19:37;100150.84;;;27.97
76541;BMP280;65385;55.772;37.658;2023-05-29T05:20:38;100149.47;;;27.70
76541;BMP280;65385;55.772;37.658;2023-05-29T05:21:38;100148.81;;;27.43
76541;BMP280;65385;55.772;37.658;2023-05-29T05:22:39;100150.50;;;27.22
76541;BMP280;65385;55.772;37.658;2023-05-29T05:23:41;100150.81;;;27.13
76541;BMP280;65385;55.772;37.658;2023-05-29T05:24:44;100144.97;;;27.08
76541;BMP280;65385;55.772;37.658;2023-05-29T05:25:44;100140.78;;;27.10
76541;BMP280;65385;55.772;37.658;2023-05-29T05:26:45;100143.50;;;27.14
76541;BMP280;65385;55.772;37.658;2023-05-29T05:27:46;100147.56;;;27.30
76541;BMP280;65385;55.772;37.658;2023-05-29T05:28:46;100142.72;;;27.47
76541;BMP280;65385;55.772;37.658;2023-05-29T05:29:48;100147.59;;;27.37
76541;BMP280;65385;55.772;37.658;2023-05-29T05:30:48;100145.91;;;27.22
76541;BMP280;65385;55.772;37.658;2023-05-29T05:31:49;100149.09;;;26.98
76541;BMP280;65385;55.772;37.658;2023-05-29T05:32:51;100144.19;;;26.78
76541;BMP280;65385;55.772;37.658;2023-05-29T05:33:52;100142.81;;;26.57
76541;BMP280;65385;55.772;37.658;2023-05-29T05:34:53;100139.84;;;26.40
76541;BMP280;65385;55.772;37.658;2023-05-29T05:35:53;100144.56;;;26.24
76541;BMP280;65385;55.772;37.658;2023-05-29T05:36:54;100146.41;;;26.16
76541;BMP280;65385;55.772;37.658;2023-05-29T05:37:55;100145.44;;;26.28
76541;BMP280;65385;55.772;37.658;2023-05-29T05:38:58;100143.81;;;26.49
76541;BMP280;65385;55.772;37.658;2023-05-29T05:39:59;100147.06;;;26.62
76541;BMP280;65385;55.772;37.658;2023-05-29T05:41:01;100145.13;;;26.89
76541;BMP280;65385;55.772;37.658;2023-05-29T05:42:05;100152.59;;;27.35
76541;BMP280;65385;55.772;37.658;2023-05-29T05:43:23;100149.81;;;27.28
76541;BMP280;65385;55.772;37.658;2023-05-29T05:44:37;100152.25;;;27.37
76541;BMP280;65385;55.772;37.658;2023-05-29T05:45:43;100156.34;;;27.68
76541;BMP280;65385;55.772;37.658;2023-05-29T05:46:44;100149.09;;;27.72
76541;BMP280;65385;55.772;37.658;2023-05-29T05:47:46;100153.75;;;27.78
76541;BMP280;65385;55.772;37.658;2023-05-29T05:48:50;100158.28;;;28.18
76541;BMP280;65385;55.772;37.658;2023-05-29T05:49:51;100155.78;;;27.88
76541;BMP280;65385;55.772;37.658;2023-05-29T05:50:52;100157.47;;;28.07
76541;BMP280;65385;55.772;37.658;2023-05-29T05:51:53;100157.34;;;27.96
76541;BMP280;65385;55.772;37.658;2023-05-29T05:52:53;100155.22;;;27.65
76541;BMP280;65385;55.772;37.658;2023-05-29T05:53:54;100155.44;;;27.50
76541;BMP280;65385;55.772;37.658;2023-05-29T05:54:55;100154.75;;;27.23
76541;BMP280;65385;55.772;37.658;2023-05-29T05:55:56;100158.31;;;27.30